createdAt,value
2023-04-30T00:00:36.389Z,100.00
2023-04-30T00:03:24.701Z,100.00
2023-04-30T00:05:53.188Z,100.00
2023-04-30T00:08:21.106Z,100.00
2023-04-30T00:10:49.020Z,100.00
2023-04-30T00:13:17.345Z,100.00
2023-04-30T00:15:45.219Z,100.00
2023-04-30T00:18:13.157Z,100.00
2023-04-30T00:20:41.185Z,100.00
2023-04-30T00:23:09.158Z,100.00
2023-04-30T00:25:37.156Z,100.00
2023-04-30T00:28:05.272Z,100.00
2023-04-30T00:30:33.237Z,100.00
2023-04-30T00:33:01.356Z,100.00
2023-04-30T00:35:30.175Z,100.00
2023-04-30T00:37:58.118Z,100.00
2023-04-30T00:40:27.123Z,100.00
2023-04-30T00:42:56.054Z,100.00
2023-04-30T00:45:24.095Z,100.00
2023-04-30T00:47:52.229Z,100.00
2023-04-30T00:50:20.505Z,100.00
2023-04-30T00:52:48.574Z,100.00
2023-04-30T00:55:17.511Z,100.00
2023-04-30T00:57:46.801Z,100.00
2023-04-30T01:00:15.354Z,100.00
2023-04-30T01:02:44.084Z,100.00
2023-04-30T01:05:12.667Z,100.00
2023-04-30T01:07:46.470Z,100.00
2023-04-30T01:10:15.664Z,100.00
2023-04-30T01:12:43.506Z,100.00
2023-04-30T01:15:24.491Z,100.00
2023-04-30T01:17:58.375Z,100.00
2023-04-30T01:20:29.728Z,100.00
2023-04-30T01:23:08.726Z,100.00
2023-04-30T01:25:59.066Z,100.00
2023-04-30T01:28:28.600Z,100.00
2023-04-30T01:30:57.234Z,100.00
2023-04-30T01:33:25.415Z,100.00
2023-04-30T01:36:18.837Z,100.00
2023-04-30T01:39:14.537Z,100.00
2023-04-30T01:41:51.049Z,100.00
2023-04-30T01:44:40.964Z,100.00
2023-04-30T01:47:30.461Z,100.00
2023-04-30T01:50:11.829Z,100.00
2023-04-30T01:52:46.548Z,100.00
2023-04-30T01:55:21.480Z,100.00
2023-04-30T01:58:01.502Z,100.00
2023-04-30T02:00:31.138Z,100.00
2023-04-30T02:02:59.151Z,100.00
2023-04-30T02:05:27.556Z,100.00
2023-04-30T02:07:57.156Z,100.00
2023-04-30T02:10:27.039Z,100.00
2023-04-30T02:12:55.115Z,100.00
2023-04-30T02:15:23.139Z,100.00
2023-04-30T02:17:51.353Z,100.00
2023-04-30T02:20:19.407Z,100.00
2023-04-30T02:22:47.331Z,100.00
2023-04-30T02:25:15.297Z,100.00
2023-04-30T02:27:43.214Z,100.00
2023-04-30T02:30:11.336Z,100.00
2023-04-30T02:32:39.425Z,100.00
2023-04-30T02:35:07.712Z,100.00
2023-04-30T02:37:36.044Z,100.00
2023-04-30T02:40:04.518Z,100.00
2023-04-30T02:42:32.442Z,100.00
2023-04-30T02:45:00.812Z,100.00
2023-04-30T02:47:28.697Z,100.00
2023-04-30T02:49:56.854Z,100.00
2023-04-30T02:52:26.347Z,100.00
2023-04-30T02:54:54.231Z,100.00
2023-04-30T02:57:22.125Z,100.00
2023-04-30T02:59:50.127Z,100.00
2023-04-30T03:02:21.513Z,100.00
2023-04-30T03:04:50.393Z,100.00
2023-04-30T03:07:18.354Z,100.00
2023-04-30T03:09:46.742Z,100.00
2023-04-30T03:12:14.857Z,100.00
2023-04-30T03:14:42.770Z,100.00
2023-04-30T03:17:10.676Z,100.00
2023-04-30T03:19:38.624Z,100.00
2023-04-30T03:22:06.678Z,100.00
2023-04-30T03:24:34.573Z,100.00
2023-04-30T03:27:03.445Z,100.00
2023-04-30T03:29:31.352Z,100.00
2023-04-30T03:31:59.376Z,100.00
2023-04-30T03:34:27.359Z,100.00
2023-04-30T03:36:55.523Z,100.00
2023-04-30T03:39:23.429Z,100.00
2023-04-30T03:41:51.393Z,100.00
2023-04-30T03:44:19.314Z,100.00
2023-04-30T03:46:47.233Z,100.00
2023-04-30T03:49:15.237Z,100.00
2023-04-30T03:51:43.275Z,100.00
2023-04-30T03:54:11.175Z,100.00
2023-04-30T03:56:39.270Z,100.00
2023-04-30T03:59:07.951Z,100.00
2023-04-30T04:01:36.515Z,100.00
2023-04-30T04:04:04.764Z,100.00
2023-04-30T04:06:33.494Z,100.00
2023-04-30T04:09:01.397Z,100.00
2023-04-30T04:11:29.292Z,100.00
2023-04-30T04:13:57.943Z,100.00
2023-04-30T04:16:26.409Z,100.00
2023-04-30T04:18:54.475Z,100.00
2023-04-30T04:21:22.401Z,100.00
2023-04-30T04:23:50.422Z,100.00
2023-04-30T04:26:19.789Z,100.00
2023-04-30T04:28:48.167Z,100.00
2023-04-30T04:31:16.679Z,100.00
2023-04-30T04:33:44.702Z,100.00
2023-04-30T04:36:12.692Z,100.00
2023-04-30T04:38:41.271Z,100.00
2023-04-30T04:41:09.472Z,100.00
2023-04-30T04:43:37.712Z,100.00
2023-04-30T04:46:05.764Z,100.00
2023-04-30T04:48:33.612Z,100.00
2023-04-30T04:51:01.556Z,100.00
2023-04-30T04:53:29.993Z,100.00
2023-04-30T04:55:58.035Z,100.00
2023-04-30T04:58:25.975Z,100.00
2023-04-30T05:00:54.432Z,100.00
2023-04-30T05:03:22.988Z,100.00
2023-04-30T05:05:51.795Z,100.00
2023-04-30T05:08:19.732Z,100.00
2023-04-30T05:10:47.783Z,100.00
2023-04-30T05:13:16.419Z,100.00
2023-04-30T05:15:44.783Z,100.00
2023-04-30T05:18:12.658Z,100.00
2023-04-30T05:20:40.598Z,100.00
2023-04-30T05:23:08.539Z,100.00
2023-04-30T05:25:36.975Z,100.00
2023-04-30T05:28:05.373Z,100.00
2023-04-30T05:30:33.370Z,100.00
2023-04-30T05:33:01.259Z,100.00
2023-04-30T05:35:30.600Z,100.00
2023-04-30T05:37:58.547Z,100.00
2023-04-30T05:40:26.416Z,100.00
2023-04-30T05:42:54.465Z,100.00
2023-04-30T05:45:22.517Z,100.00
2023-04-30T05:47:50.476Z,100.00
2023-04-30T05:50:18.540Z,100.00
2023-04-30T05:52:46.549Z,100.00
2023-04-30T05:55:14.417Z,100.00
2023-04-30T05:57:42.295Z,100.00
2023-04-30T06:00:10.991Z,100.00
2023-04-30T06:02:41.650Z,100.00
2023-04-30T06:05:09.967Z,100.00
2023-04-30T06:07:37.963Z,100.00
2023-04-30T06:10:07.163Z,100.00
2023-04-30T06:12:35.148Z,100.00
2023-04-30T06:15:03.415Z,100.00
2023-04-30T06:17:31.278Z,100.00
2023-04-30T06:20:02.556Z,100.00
2023-04-30T06:22:30.523Z,100.00
2023-04-30T06:24:58.501Z,100.00
2023-04-30T06:27:29.332Z,100.00
2023-04-30T06:29:57.239Z,100.00
2023-04-30T06:32:25.202Z,99.99
2023-04-30T06:34:53.125Z,99.86
2023-04-30T06:37:20.985Z,99.18
2023-04-30T06:39:49.461Z,98.72
2023-04-30T06:42:17.514Z,99.22
2023-04-30T06:44:46.298Z,97.66
2023-04-30T06:47:15.180Z,97.58
2023-04-30T06:49:43.303Z,96.07
2023-04-30T06:52:11.189Z,96.34
2023-04-30T06:54:39.159Z,96.50
2023-04-30T06:57:07.345Z,95.91
2023-04-30T06:59:35.239Z,95.81
2023-04-30T07:02:03.292Z,93.99
2023-04-30T07:04:31.372Z,93.94
2023-04-30T07:07:02.322Z,92.92
2023-04-30T07:09:30.214Z,93.47
2023-04-30T07:11:58.865Z,93.30
2023-04-30T07:14:27.113Z,94.05
2023-04-30T07:16:55.655Z,92.22
2023-04-30T07:19:24.156Z,90.65
2023-04-30T07:21:52.081Z,87.26
2023-04-30T07:24:19.938Z,86.35
2023-04-30T07:26:47.938Z,87.13
2023-04-30T07:29:15.878Z,87.43
2023-04-30T07:31:43.878Z,86.17
2023-04-30T07:34:12.091Z,85.09
2023-04-30T07:36:40.021Z,85.36
2023-04-30T07:39:08.254Z,84.44
2023-04-30T07:41:36.176Z,84.45
2023-04-30T07:44:04.234Z,84.43
2023-04-30T07:46:32.360Z,83.22
2023-04-30T07:49:00.464Z,82.60
2023-04-30T07:51:29.228Z,80.57
2023-04-30T07:53:57.139Z,78.01
2023-04-30T07:56:25.085Z,73.98
2023-04-30T07:58:53.114Z,74.55
2023-04-30T08:01:20.979Z,73.51
2023-04-30T08:03:49.140Z,71.23
2023-04-30T08:06:17.553Z,71.40
2023-04-30T08:08:46.003Z,72.58
2023-04-30T08:11:14.074Z,71.20
2023-04-30T08:13:43.035Z,71.18
2023-04-30T08:16:11.147Z,68.55
2023-04-30T08:18:39.217Z,69.67
2023-04-30T08:21:07.292Z,68.31
2023-04-30T08:23:35.185Z,70.29
2023-04-30T08:26:03.126Z,69.07
2023-04-30T08:28:31.178Z,68.75
2023-04-30T08:30:59.094Z,69.07
2023-04-30T08:33:27.149Z,69.12
2023-04-30T08:35:55.174Z,66.16
2023-04-30T08:38:23.043Z,66.01
2023-04-30T08:41:05.688Z,65.46
2023-04-30T08:43:35.710Z,64.83
2023-04-30T08:46:07.084Z,64.62
2023-04-30T08:48:35.558Z,63.65
2023-04-30T08:51:04.627Z,63.76
2023-04-30T08:53:36.188Z,65.92
2023-04-30T08:56:05.071Z,62.79
2023-04-30T08:58:33.142Z,62.61
2023-04-30T09:01:02.606Z,62.43
2023-04-30T09:03:31.636Z,62.14
2023-04-30T09:05:59.730Z,62.11
2023-04-30T09:08:42.752Z,62.17
2023-04-30T09:11:26.549Z,61.01
2023-04-30T09:13:59.881Z,61.44
2023-04-30T09:16:33.335Z,59.55
2023-04-30T09:19:01.492Z,58.85
2023-04-30T09:21:37.029Z,57.79
2023-04-30T09:24:06.080Z,56.19
2023-04-30T09:26:36.334Z,55.65
2023-04-30T09:29:08.301Z,57.25
2023-04-30T09:31:38.469Z,58.12
2023-04-30T09:34:07.022Z,57.39
2023-04-30T09:36:35.321Z,56.83
2023-04-30T09:39:15.769Z,56.26
2023-04-30T09:41:44.820Z,56.55
2023-04-30T09:44:28.700Z,55.32
2023-04-30T09:47:00.150Z,56.55
2023-04-30T09:49:28.318Z,56.46
2023-04-30T09:52:01.098Z,55.98
2023-04-30T09:54:30.725Z,56.36
2023-04-30T09:57:01.895Z,55.87
2023-04-30T09:59:32.359Z,55.29
2023-04-30T10:02:01.900Z,54.88
2023-04-30T10:04:42.689Z,53.72
2023-04-30T10:07:17.632Z,53.34
2023-04-30T10:10:03.172Z,53.83
2023-04-30T10:12:43.247Z,54.57
2023-04-30T10:15:17.757Z,54.56
2023-04-30T10:17:53.443Z,53.69
2023-04-30T10:20:23.305Z,53.17
2023-04-30T10:22:52.747Z,52.89
2023-04-30T10:25:23.142Z,52.01
2023-04-30T10:27:51.932Z,49.37
2023-04-30T10:30:22.649Z,50.21
2023-04-30T10:33:00.621Z,50.51
2023-04-30T10:35:44.810Z,50.39
2023-04-30T10:38:25.218Z,50.46
2023-04-30T10:41:01.556Z,50.92
2023-04-30T10:43:35.257Z,51.19
2023-04-30T10:46:04.781Z,50.25
2023-04-30T10:48:36.092Z,49.36
2023-04-30T10:51:04.210Z,48.17
2023-04-30T10:53:32.846Z,48.50
2023-04-30T10:56:09.476Z,49.37
2023-04-30T10:58:39.792Z,48.56
2023-04-30T11:01:20.796Z,47.10
2023-04-30T11:04:09.778Z,47.00
2023-04-30T11:06:49.341Z,47.90
2023-04-30T11:09:17.432Z,47.98
2023-04-30T11:11:47.561Z,46.83
2023-04-30T11:14:21.351Z,48.29
2023-04-30T11:16:51.343Z,46.56
2023-04-30T11:19:22.988Z,43.21
2023-04-30T11:22:06.167Z,44.35
2023-04-30T11:24:52.718Z,44.06
2023-04-30T11:27:23.225Z,44.85
2023-04-30T11:29:53.310Z,43.71
2023-04-30T11:32:24.045Z,43.52
2023-04-30T11:34:52.057Z,43.65
2023-04-30T11:37:22.016Z,43.74
2023-04-30T11:39:51.296Z,44.63
2023-04-30T11:42:19.910Z,44.35
2023-04-30T11:44:48.553Z,43.62
2023-04-30T11:47:16.668Z,43.00
2023-04-30T11:49:44.695Z,42.61
2023-04-30T11:52:15.793Z,42.61
2023-04-30T11:54:43.731Z,44.96
2023-04-30T11:57:11.613Z,43.81
2023-04-30T11:59:43.894Z,41.27
2023-04-30T12:02:16.638Z,41.47
2023-04-30T12:04:44.730Z,40.79
2023-04-30T12:07:13.316Z,41.75
2023-04-30T12:09:57.615Z,42.35
2023-04-30T12:12:30.157Z,40.77
2023-04-30T12:14:58.157Z,40.67
2023-04-30T12:17:34.302Z,40.56
2023-04-30T12:20:02.399Z,40.37
2023-04-30T12:22:30.779Z,39.29
2023-04-30T12:25:00.370Z,39.31
2023-04-30T12:27:28.439Z,39.30
2023-04-30T12:29:56.815Z,40.37
2023-04-30T12:32:25.060Z,39.49
2023-04-30T12:34:59.210Z,40.11
2023-04-30T12:37:27.489Z,39.07
2023-04-30T12:39:56.466Z,39.59
2023-04-30T12:42:25.206Z,39.96
2023-04-30T12:44:53.104Z,38.51
2023-04-30T12:47:21.103Z,36.36
2023-04-30T12:49:49.589Z,37.16
2023-04-30T12:52:17.497Z,36.54
2023-04-30T12:54:45.562Z,36.00
2023-04-30T12:57:13.493Z,36.64
2023-04-30T12:59:53.828Z,37.38
2023-04-30T13:02:28.385Z,35.60
2023-04-30T13:04:57.103Z,35.73
2023-04-30T13:07:25.341Z,36.52
2023-04-30T13:09:53.403Z,35.71
2023-04-30T13:12:21.689Z,35.98
2023-04-30T13:14:49.602Z,35.80
2023-04-30T13:17:17.690Z,36.40
2023-04-30T13:19:45.612Z,36.62
2023-04-30T13:22:13.583Z,36.25
2023-04-30T13:24:41.488Z,35.33
2023-04-30T13:27:09.365Z,34.88
2023-04-30T13:29:37.413Z,34.21
2023-04-30T13:32:06.127Z,34.17
2023-04-30T13:34:34.094Z,34.57
2023-04-30T13:37:02.026Z,35.24
2023-04-30T13:39:29.910Z,34.97
2023-04-30T13:41:57.765Z,34.78
2023-04-30T13:44:25.709Z,34.16
2023-04-30T13:46:53.924Z,34.98
2023-04-30T13:49:21.883Z,34.59
2023-04-30T13:51:49.916Z,33.71
2023-04-30T13:54:18.156Z,34.09
2023-04-30T13:56:46.020Z,33.36
2023-04-30T13:59:14.162Z,34.10
2023-04-30T14:01:42.169Z,34.11
2023-04-30T14:04:10.100Z,33.29
2023-04-30T14:06:39.077Z,33.04
2023-04-30T14:09:07.004Z,33.12
2023-04-30T14:11:34.944Z,33.09
2023-04-30T14:14:03.130Z,33.02
2023-04-30T14:16:31.173Z,33.08
2023-04-30T14:18:59.092Z,33.89
2023-04-30T14:21:28.784Z,33.35
2023-04-30T14:23:56.681Z,34.22
2023-04-30T14:26:24.816Z,33.86
2023-04-30T14:28:52.993Z,34.09
2023-04-30T14:31:21.195Z,34.24
2023-04-30T14:33:49.129Z,34.02
2023-04-30T14:36:17.564Z,34.31
2023-04-30T14:38:45.411Z,34.20
2023-04-30T14:41:13.302Z,34.68
2023-04-30T14:43:41.658Z,34.76
2023-04-30T14:46:09.733Z,33.57
2023-04-30T14:48:38.045Z,33.71
2023-04-30T14:51:06.075Z,34.02
2023-04-30T14:53:33.971Z,34.72
2023-04-30T14:56:01.936Z,33.69
2023-04-30T14:58:29.966Z,33.28
2023-04-30T15:00:58.174Z,33.02
2023-04-30T15:03:26.376Z,33.10
2023-04-30T15:05:54.559Z,32.97
2023-04-30T15:08:22.558Z,33.38
2023-04-30T15:10:50.566Z,33.93
2023-04-30T15:13:18.588Z,33.68
2023-04-30T15:15:47.324Z,33.41
2023-04-30T15:18:15.973Z,33.28
2023-04-30T15:20:44.006Z,33.44
2023-04-30T15:23:12.675Z,33.39
2023-04-30T15:25:40.693Z,33.14
2023-04-30T15:28:08.668Z,32.67
2023-04-30T15:30:37.116Z,32.74
2023-04-30T15:33:05.027Z,32.68
2023-04-30T15:35:32.988Z,32.44
2023-04-30T15:38:00.974Z,32.94
2023-04-30T15:40:28.972Z,33.02
2023-04-30T15:42:56.842Z,33.45
2023-04-30T15:45:25.516Z,33.42
2023-04-30T15:47:53.514Z,32.71
2023-04-30T15:50:21.840Z,33.27
2023-04-30T15:52:49.815Z,33.07
2023-04-30T15:55:17.819Z,33.43
2023-04-30T15:57:45.734Z,33.03
2023-04-30T16:00:15.398Z,32.87
2023-04-30T16:02:43.770Z,32.53
2023-04-30T16:05:12.467Z,32.68
2023-04-30T16:07:43.124Z,32.15
2023-04-30T16:10:12.411Z,32.28
2023-04-30T16:12:40.277Z,32.06
2023-04-30T16:15:09.553Z,32.62
2023-04-30T16:17:37.533Z,32.55
2023-04-30T16:20:07.272Z,32.47
2023-04-30T16:22:35.371Z,31.95
2023-04-30T16:25:03.878Z,32.07
2023-04-30T16:27:33.035Z,32.12
2023-04-30T16:30:02.744Z,32.66
2023-04-30T16:32:30.870Z,32.70
2023-04-30T16:35:02.332Z,32.35
2023-04-30T16:37:31.194Z,31.51
2023-04-30T16:40:02.005Z,31.49
2023-04-30T16:42:31.135Z,32.17
2023-04-30T16:44:59.081Z,31.79
2023-04-30T16:47:27.076Z,31.84
2023-04-30T16:49:56.524Z,31.52
2023-04-30T16:52:25.775Z,32.14
2023-04-30T16:54:54.193Z,31.80
2023-04-30T16:57:25.256Z,32.20
2023-04-30T16:59:53.406Z,32.25
2023-04-30T17:02:22.748Z,32.23
2023-04-30T17:04:51.389Z,32.04
2023-04-30T17:07:19.535Z,31.70
2023-04-30T17:09:48.193Z,32.02
2023-04-30T17:12:16.227Z,31.24
2023-04-30T17:14:44.202Z,31.12
2023-04-30T17:17:12.074Z,31.34
2023-04-30T17:19:39.954Z,31.41
2023-04-30T17:22:08.019Z,31.71
2023-04-30T17:24:36.039Z,31.84
2023-04-30T17:27:05.730Z,31.85
2023-04-30T17:29:34.205Z,31.76
2023-04-30T17:32:02.708Z,32.35
2023-04-30T17:34:31.463Z,32.54
2023-04-30T17:36:59.364Z,33.28
2023-04-30T17:39:28.943Z,33.67
2023-04-30T17:41:56.825Z,34.25
2023-04-30T17:44:24.877Z,34.64
2023-04-30T17:46:53.079Z,34.99
2023-04-30T17:49:21.344Z,35.52
2023-04-30T17:51:49.293Z,35.88
2023-04-30T17:54:17.248Z,36.10
2023-04-30T17:56:45.247Z,36.46
2023-04-30T17:59:13.198Z,36.87
2023-04-30T18:01:41.153Z,37.06
2023-04-30T18:04:09.331Z,37.57
2023-04-30T18:06:37.402Z,37.39
2023-04-30T18:09:05.371Z,37.61
2023-04-30T18:11:33.847Z,37.72
2023-04-30T18:14:02.401Z,37.94
2023-04-30T18:16:32.340Z,38.43
2023-04-30T18:19:05.392Z,38.59
2023-04-30T18:21:37.255Z,38.38
2023-04-30T18:24:06.243Z,39.02
2023-04-30T18:26:34.160Z,39.03
2023-04-30T18:29:02.541Z,39.17
2023-04-30T18:31:30.973Z,39.81
2023-04-30T18:33:58.953Z,39.97
2023-04-30T18:36:26.879Z,40.30
2023-04-30T18:38:54.874Z,40.76
2023-04-30T18:41:23.711Z,40.68
2023-04-30T18:43:52.079Z,40.76
2023-04-30T18:46:20.045Z,41.14
2023-04-30T18:48:48.375Z,41.64
2023-04-30T18:51:17.036Z,41.46
2023-04-30T18:53:47.228Z,42.30
2023-04-30T18:56:15.939Z,42.73
2023-04-30T18:58:46.810Z,42.51
2023-04-30T19:01:14.973Z,43.16
2023-04-30T19:03:43.215Z,43.27
2023-04-30T19:06:11.486Z,43.43
2023-04-30T19:08:39.383Z,43.57
2023-04-30T19:11:09.040Z,44.28
2023-04-30T19:13:37.153Z,44.45
2023-04-30T19:16:05.701Z,45.28
2023-04-30T19:18:35.264Z,45.98
2023-04-30T19:21:04.713Z,46.18
2023-04-30T19:23:32.640Z,46.36
2023-04-30T19:26:00.626Z,46.32
2023-04-30T19:28:28.576Z,46.82
2023-04-30T19:30:56.896Z,46.94
2023-04-30T19:33:25.719Z,46.62
2023-04-30T19:35:55.147Z,46.81
2023-04-30T19:38:23.881Z,46.83
2023-04-30T19:40:55.006Z,47.14
2023-04-30T19:43:25.222Z,46.91
2023-04-30T19:45:58.747Z,47.03
2023-04-30T19:48:27.000Z,47.28
2023-04-30T19:50:55.056Z,47.86
2023-04-30T19:53:25.730Z,48.57
2023-04-30T19:55:53.700Z,48.62
2023-04-30T19:58:21.952Z,49.12
2023-04-30T20:00:50.157Z,49.00
2023-04-30T20:03:19.879Z,49.09
2023-04-30T20:05:48.282Z,49.04
2023-04-30T20:08:16.175Z,49.08
2023-04-30T20:10:44.380Z,49.53
2023-04-30T20:13:12.504Z,49.52
2023-04-30T20:15:40.757Z,49.67
2023-04-30T20:18:08.928Z,49.65
2023-04-30T20:20:37.014Z,49.54
2023-04-30T20:23:16.269Z,49.83
2023-04-30T20:25:45.944Z,49.83
2023-04-30T20:28:15.704Z,49.76
2023-04-30T20:30:44.245Z,49.89
2023-04-30T20:33:13.319Z,50.06
2023-04-30T20:35:44.132Z,49.93
2023-04-30T20:38:13.289Z,49.90
2023-04-30T20:40:41.236Z,49.93
2023-04-30T20:43:10.391Z,50.08
2023-04-30T20:45:38.560Z,49.91
2023-04-30T20:48:08.750Z,49.86
2023-04-30T20:50:37.555Z,49.64
2023-04-30T20:53:05.750Z,49.64
2023-04-30T20:55:34.014Z,49.76
2023-04-30T20:58:03.088Z,49.79
2023-04-30T21:00:31.088Z,49.78
2023-04-30T21:02:59.204Z,49.86
2023-04-30T21:05:28.707Z,49.90
2023-04-30T21:08:01.486Z,49.99
2023-04-30T21:10:36.421Z,50.00
2023-04-30T21:13:05.689Z,50.24
2023-04-30T21:15:36.097Z,50.22
2023-04-30T21:18:04.190Z,50.16
2023-04-30T21:20:32.529Z,50.05
2023-04-30T21:23:01.944Z,50.11
2023-04-30T21:25:29.908Z,50.14
2023-04-30T21:27:58.084Z,50.08
2023-04-30T21:30:26.620Z,50.12
2023-04-30T21:32:58.871Z,50.17
2023-04-30T21:35:33.151Z,50.17
2023-04-30T21:38:01.275Z,50.10
2023-04-30T21:40:32.431Z,50.24
2023-04-30T21:43:01.543Z,50.32
2023-04-30T21:45:31.861Z,50.32
2023-04-30T21:48:00.385Z,50.63
2023-04-30T21:50:28.384Z,50.58
2023-04-30T21:52:56.358Z,50.59
2023-04-30T21:55:24.389Z,50.57
2023-04-30T21:57:52.472Z,50.72
2023-04-30T22:00:21.213Z,50.84
2023-04-30T22:02:50.887Z,50.75
2023-04-30T22:05:21.277Z,50.93
2023-04-30T22:07:49.281Z,50.83
2023-04-30T22:10:17.174Z,51.22
2023-04-30T22:12:47.772Z,51.44
2023-04-30T22:15:16.180Z,51.72
2023-04-30T22:17:44.417Z,51.46
2023-04-30T22:20:12.830Z,51.55
2023-04-30T22:22:40.871Z,51.44
2023-04-30T22:25:10.114Z,51.41
2023-04-30T22:27:38.077Z,51.24
2023-04-30T22:30:06.906Z,51.46
2023-04-30T22:32:34.811Z,51.54
2023-04-30T22:35:03.561Z,51.90
2023-04-30T22:37:31.561Z,51.78
2023-04-30T22:39:59.663Z,52.08
2023-04-30T22:42:28.675Z,51.72
2023-04-30T22:44:56.929Z,52.05
2023-04-30T22:47:27.493Z,52.42
2023-04-30T22:49:57.036Z,52.52
2023-04-30T22:52:26.282Z,52.91
2023-04-30T22:54:54.220Z,52.53
2023-04-30T22:57:25.766Z,53.26
2023-04-30T22:59:54.385Z,53.35
2023-04-30T23:02:22.832Z,53.58
2023-04-30T23:04:51.626Z,53.67
2023-04-30T23:07:19.579Z,53.66
2023-04-30T23:09:47.443Z,53.69
2023-04-30T23:12:15.333Z,53.80
2023-04-30T23:14:43.230Z,54.23
2023-04-30T23:17:11.298Z,54.77
2023-04-30T23:19:39.315Z,54.52
2023-04-30T23:22:07.179Z,54.76
2023-04-30T23:24:36.091Z,54.93
2023-04-30T23:27:04.486Z,55.07
2023-04-30T23:29:33.304Z,55.52
2023-04-30T23:32:04.601Z,56.16
2023-04-30T23:34:32.607Z,57.86
2023-04-30T23:37:01.157Z,58.19
2023-04-30T23:39:29.226Z,57.79
2023-04-30T23:41:57.563Z,57.43
2023-04-30T23:44:25.480Z,58.47
2023-04-30T23:46:53.862Z,58.05
2023-04-30T23:49:24.716Z,59.17
2023-04-30T23:51:53.264Z,58.69
2023-04-30T23:54:21.229Z,58.73
2023-04-30T23:56:49.795Z,59.58
2023-04-30T23:59:17.622Z,61.62
